createdAt,value
2022-11-30T00:01:59.990Z,63.92
2022-11-30T00:04:26.705Z,55.42
2022-11-30T00:06:57.260Z,56.03
2022-11-30T00:09:24.678Z,55.00
2022-11-30T00:11:51.344Z,50.65
2022-11-30T00:14:17.968Z,55.40
2022-11-30T00:16:44.885Z,56.05
2022-11-30T00:19:11.590Z,55.05
2022-11-30T00:21:38.307Z,51.90
2022-11-30T00:24:06.065Z,48.47
2022-11-30T00:26:32.813Z,52.05
2022-11-30T00:28:59.483Z,58.38
2022-11-30T00:31:26.262Z,50.53
2022-11-30T00:33:52.917Z,48.58
2022-11-30T00:36:24.118Z,53.63
2022-11-30T00:38:51.857Z,52.08
2022-11-30T00:41:19.403Z,49.38
2022-11-30T00:43:46.470Z,46.47
2022-11-30T00:46:14.693Z,45.97
2022-11-30T00:48:41.514Z,48.53
2022-11-30T00:51:10.415Z,49.03
2022-11-30T00:53:38.873Z,50.53
2022-11-30T00:56:06.729Z,49.13
2022-11-30T00:58:33.547Z,45.20
2022-11-30T01:01:00.630Z,48.97
2022-11-30T01:03:27.335Z,49.20
2022-11-30T01:05:53.988Z,46.50
2022-11-30T01:08:21.981Z,45.22
2022-11-30T01:10:53.374Z,45.70
2022-11-30T01:13:21.278Z,48.03
2022-11-30T01:15:47.989Z,54.65
2022-11-30T01:18:14.643Z,46.85
2022-11-30T01:20:42.734Z,45.67
2022-11-30T01:23:10.354Z,46.40
2022-11-30T01:25:37.266Z,58.80
2022-11-30T01:28:04.044Z,53.53
2022-11-30T01:30:30.905Z,57.80
2022-11-30T01:33:02.568Z,51.85
2022-11-30T01:35:29.412Z,47.15
2022-11-30T01:37:56.156Z,52.22
2022-11-30T01:40:23.012Z,47.80
2022-11-30T01:42:49.820Z,49.30
2022-11-30T01:45:16.547Z,50.47
2022-11-30T01:47:51.602Z,52.88
2022-11-30T01:50:33.402Z,49.47
2022-11-30T01:53:01.776Z,49.17
2022-11-30T01:55:45.131Z,49.40
2022-11-30T01:58:16.591Z,49.85
2022-11-30T02:00:48.641Z,44.95
2022-11-30T02:03:24.921Z,50.85
2022-11-30T02:05:51.762Z,50.05
2022-11-30T02:08:19.783Z,48.83
2022-11-30T02:10:52.896Z,44.75
2022-11-30T02:13:58.845Z,48.10
2022-11-30T02:16:51.320Z,48.72
2022-11-30T02:19:48.517Z,51.00
2022-11-30T02:22:42.351Z,52.13
2022-11-30T02:25:37.904Z,48.03
2022-11-30T02:28:29.204Z,55.10
2022-11-30T02:30:58.880Z,52.90
2022-11-30T02:33:29.937Z,45.03
2022-11-30T02:35:58.061Z,49.10
2022-11-30T02:38:26.836Z,48.65
2022-11-30T02:40:53.654Z,51.50
2022-11-30T02:43:23.054Z,48.70
2022-11-30T02:46:14.203Z,51.95
2022-11-30T02:48:49.340Z,45.80
2022-11-30T02:51:20.057Z,49.65
2022-11-30T02:56:13.793Z,46.13
2022-11-30T02:58:40.846Z,45.50
2022-11-30T03:01:07.671Z,46.28
2022-11-30T03:03:34.495Z,47.67
2022-11-30T03:06:01.185Z,48.88
2022-11-30T03:08:29.199Z,47.60
2022-11-30T03:10:55.889Z,48.20
2022-11-30T03:13:22.531Z,47.60
2022-11-30T03:15:49.405Z,48.45
2022-11-30T03:18:16.068Z,46.08
2022-11-30T03:20:43.242Z,50.58
2022-11-30T03:23:10.566Z,47.65
2022-11-30T03:25:37.331Z,46.35
2022-11-30T03:28:04.236Z,47.03
2022-11-30T03:30:30.984Z,47.60
2022-11-30T03:32:57.920Z,43.50
2022-11-30T03:35:24.585Z,42.67
2022-11-30T03:37:51.511Z,39.80
2022-11-30T03:40:18.734Z,38.28
2022-11-30T03:42:45.387Z,39.28
2022-11-30T03:45:12.063Z,38.53
2022-11-30T03:47:38.715Z,41.63
2022-11-30T03:50:06.052Z,46.80
2022-11-30T03:52:32.746Z,37.75
2022-11-30T03:55:00.893Z,43.35
2022-11-30T03:57:27.650Z,41.45
2022-11-30T03:59:54.301Z,39.70
2022-11-30T04:02:20.930Z,39.50
2022-11-30T04:04:47.915Z,37.13
2022-11-30T04:07:14.729Z,43.90
2022-11-30T04:09:41.518Z,33.40
2022-11-30T04:12:08.337Z,39.40
2022-11-30T04:14:35.010Z,41.90
2022-11-30T04:17:01.861Z,37.58
2022-11-30T04:19:28.510Z,39.67
2022-11-30T04:21:56.434Z,43.20
2022-11-30T04:24:23.073Z,43.05
2022-11-30T04:26:49.686Z,47.33
2022-11-30T04:29:16.417Z,48.85
2022-11-30T04:31:43.079Z,47.65
2022-11-30T04:34:10.027Z,39.85
2022-11-30T04:36:36.776Z,37.90
2022-11-30T04:39:03.467Z,40.10
2022-11-30T04:41:30.124Z,39.50
2022-11-30T04:43:56.935Z,40.15
2022-11-30T04:46:24.135Z,37.40
2022-11-30T04:48:50.933Z,40.00
2022-11-30T04:51:18.658Z,42.95
2022-11-30T04:53:45.443Z,44.38
2022-11-30T04:56:13.253Z,42.17
2022-11-30T04:58:40.015Z,39.42
2022-11-30T05:01:07.421Z,39.22
2022-11-30T05:03:34.211Z,38.97
2022-11-30T05:06:01.025Z,38.13
2022-11-30T05:08:27.895Z,42.78
2022-11-30T05:10:55.342Z,38.22
2022-11-30T05:13:23.722Z,41.03
2022-11-30T05:15:50.971Z,41.50
2022-11-30T05:18:17.688Z,41.88
2022-11-30T05:20:49.435Z,37.58
2022-11-30T05:23:17.198Z,42.60
2022-11-30T05:25:44.758Z,46.38
2022-11-30T05:28:12.030Z,49.65
2022-11-30T05:30:40.138Z,53.45
2022-11-30T05:33:06.977Z,56.92
2022-11-30T05:35:33.793Z,47.05
2022-11-30T05:38:00.529Z,44.22
2022-11-30T05:40:28.730Z,41.50
2022-11-30T05:42:56.849Z,40.70
2022-11-30T05:45:23.949Z,39.95
2022-11-30T05:47:50.954Z,50.28
2022-11-30T05:50:17.727Z,53.40
2022-11-30T05:52:44.624Z,48.45
2022-11-30T05:55:11.695Z,46.28
2022-11-30T05:57:39.501Z,40.17
2022-11-30T06:00:09.310Z,38.22
2022-11-30T06:02:36.059Z,44.47
2022-11-30T06:05:02.850Z,44.53
2022-11-30T06:07:37.111Z,48.10
2022-11-30T06:10:04.733Z,46.80
2022-11-30T06:12:31.702Z,51.15
2022-11-30T06:14:58.354Z,48.88
2022-11-30T06:17:25.023Z,47.08
2022-11-30T06:19:51.668Z,44.53
2022-11-30T06:22:18.304Z,39.28
2022-11-30T06:24:45.477Z,39.72
2022-11-30T06:27:12.452Z,42.30
2022-11-30T06:29:39.130Z,40.55
2022-11-30T06:32:07.922Z,40.35
2022-11-30T06:34:34.598Z,38.83
2022-11-30T06:37:01.253Z,45.65
2022-11-30T06:39:57.714Z,46.83
2022-11-30T06:42:14.655Z,41.20
2022-11-30T06:44:41.325Z,47.10
2022-11-30T06:47:07.955Z,41.75
2022-11-30T06:49:34.583Z,40.00
2022-11-30T06:52:01.746Z,41.85
2022-11-30T06:54:28.456Z,43.15
2022-11-30T06:56:56.608Z,37.00
2022-11-30T06:59:26.058Z,42.70
2022-11-30T07:01:52.772Z,43.28
2022-11-30T07:04:19.463Z,45.55
2022-11-30T07:06:46.183Z,52.95
2022-11-30T07:09:13.661Z,46.00
2022-11-30T07:11:40.348Z,55.03
2022-11-30T07:14:07.188Z,50.40
2022-11-30T07:16:33.940Z,44.30
2022-11-30T07:19:00.655Z,42.53
2022-11-30T07:21:27.343Z,41.55
2022-11-30T07:24:12.525Z,42.88
2022-11-30T07:26:39.319Z,46.25
2022-11-30T07:29:06.053Z,43.55
2022-11-30T07:31:34.911Z,44.65
2022-11-30T07:34:07.118Z,43.55
2022-11-30T07:36:34.946Z,37.88
2022-11-30T07:39:02.253Z,39.35
2022-11-30T07:41:28.917Z,38.83
2022-11-30T07:43:55.678Z,42.83
2022-11-30T07:46:22.395Z,38.17
2022-11-30T07:48:49.191Z,41.40
2022-11-30T07:51:21.302Z,43.33
2022-11-30T07:53:49.003Z,48.33
2022-11-30T07:56:18.150Z,42.42
2022-11-30T07:58:47.493Z,39.00
2022-11-30T08:01:17.474Z,38.92
2022-11-30T08:03:44.524Z,34.78
2022-11-30T08:06:24.447Z,38.17
2022-11-30T08:08:53.546Z,35.03
2022-11-30T08:11:28.419Z,36.65
2022-11-30T08:13:55.177Z,34.88
2022-11-30T08:16:24.341Z,36.05
2022-11-30T08:18:51.286Z,39.75
2022-11-30T08:21:20.578Z,47.25
2022-11-30T08:23:53.148Z,37.17
2022-11-30T08:26:27.553Z,40.47
2022-11-30T08:28:55.254Z,44.75
2022-11-30T08:31:25.463Z,50.20
2022-11-30T08:33:56.958Z,44.38
2022-11-30T08:36:25.086Z,45.17
2022-11-30T08:38:51.779Z,43.88
2022-11-30T08:41:21.558Z,34.90
2022-11-30T08:43:50.094Z,33.90
2022-11-30T08:49:21.595Z,36.05
2022-11-30T08:54:39.464Z,42.75
2022-11-30T08:57:06.181Z,55.08
2022-11-30T08:59:32.902Z,52.35
2022-11-30T09:01:59.634Z,62.20
2022-11-30T09:04:26.334Z,47.33
2022-11-30T09:06:52.992Z,51.88
2022-11-30T09:09:19.749Z,48.08
2022-11-30T09:11:46.403Z,51.10
2022-11-30T09:14:13.049Z,49.92
2022-11-30T09:16:39.934Z,41.25
2022-11-30T09:19:06.608Z,45.55
2022-11-30T09:21:33.372Z,35.85
2022-11-30T09:24:00.104Z,29.15
2022-11-30T09:26:26.964Z,32.95
2022-11-30T09:28:54.417Z,46.95
2022-11-30T09:31:25.727Z,41.97
2022-11-30T09:33:55.126Z,32.35
2022-11-30T09:36:23.744Z,35.75
2022-11-30T09:38:50.383Z,36.92
2022-11-30T09:41:45.319Z,33.13
2022-11-30T09:44:38.864Z,33.33
2022-11-30T09:47:14.796Z,39.28
2022-11-30T09:49:44.049Z,33.83
2022-11-30T09:52:24.151Z,31.38
2022-11-30T09:54:50.825Z,33.85
2022-11-30T09:57:35.002Z,32.40
2022-11-30T10:00:12.458Z,29.83
2022-11-30T10:02:39.374Z,28.63
2022-11-30T10:05:14.824Z,30.33
2022-11-30T10:07:55.278Z,30.27
2022-11-30T10:10:39.017Z,27.10
2022-11-30T10:13:24.575Z,26.00
2022-11-30T10:16:13.087Z,28.63
2022-11-30T10:18:55.074Z,30.42
2022-11-30T10:21:50.346Z,33.00
2022-11-30T10:24:49.944Z,31.40
2022-11-30T10:27:25.494Z,35.17
2022-11-30T10:29:52.093Z,34.22
2022-11-30T10:32:31.070Z,34.25
2022-11-30T10:35:04.089Z,30.15
2022-11-30T10:37:35.197Z,31.10
2022-11-30T10:40:11.355Z,33.15
2022-11-30T10:42:46.736Z,32.15
2022-11-30T10:45:23.684Z,29.42
2022-11-30T10:48:16.366Z,32.33
2022-11-30T10:50:43.347Z,38.42
2022-11-30T10:53:11.812Z,38.53
2022-11-30T10:55:44.793Z,33.40
2022-11-30T10:58:23.245Z,34.38
2022-11-30T11:01:28.359Z,34.83
2022-11-30T11:04:08.343Z,38.10
2022-11-30T11:06:35.921Z,40.17
2022-11-30T11:09:24.324Z,36.67
2022-11-30T11:12:16.979Z,43.58
2022-11-30T11:14:43.839Z,38.67
2022-11-30T11:17:19.501Z,36.85
2022-11-30T11:19:48.438Z,42.70
2022-11-30T11:22:27.410Z,51.03
2022-11-30T11:25:09.582Z,42.33
2022-11-30T11:27:41.223Z,43.03
2022-11-30T11:30:26.106Z,42.30
2022-11-30T11:33:11.440Z,37.65
2022-11-30T11:35:42.119Z,37.42
2022-11-30T11:41:01.840Z,39.28
2022-11-30T11:43:31.218Z,40.70
2022-11-30T11:46:14.525Z,36.80
2022-11-30T11:49:05.673Z,42.35
2022-11-30T11:51:36.462Z,40.70
2022-11-30T11:54:18.241Z,43.72
2022-11-30T11:56:45.162Z,40.35
2022-11-30T11:59:46.906Z,37.30
2022-11-30T12:02:34.198Z,35.42
2022-11-30T12:05:15.567Z,66.20
2022-11-30T12:08:17.187Z,55.97
2022-11-30T12:10:52.896Z,43.70
2022-11-30T12:13:23.310Z,41.45
2022-11-30T12:16:14.555Z,38.00
2022-11-30T12:19:08.279Z,35.88
2022-11-30T12:22:12.794Z,41.85
2022-11-30T12:24:57.394Z,41.42
2022-11-30T12:27:37.948Z,36.53
2022-11-30T12:30:23.010Z,36.00
2022-11-30T12:33:10.024Z,37.03
2022-11-30T12:35:56.086Z,41.85
2022-11-30T12:38:34.665Z,40.42
2022-11-30T12:41:20.042Z,47.25
2022-11-30T12:43:59.390Z,44.53
2022-11-30T12:46:32.757Z,46.83
2022-11-30T12:49:22.431Z,45.40
2022-11-30T12:52:01.191Z,46.22
2022-11-30T12:55:00.176Z,40.38
2022-11-30T12:57:54.011Z,46.40
2022-11-30T13:00:23.085Z,38.85
2022-11-30T13:03:24.434Z,41.67
2022-11-30T13:05:57.924Z,42.10
2022-11-30T13:08:55.611Z,42.53
2022-11-30T13:11:29.155Z,37.90
2022-11-30T13:13:59.203Z,42.05
2022-11-30T13:16:26.895Z,39.33
2022-11-30T13:19:00.771Z,40.97
2022-11-30T13:21:37.575Z,43.38
2022-11-30T13:24:17.050Z,48.83
2022-11-30T13:26:58.307Z,39.90
2022-11-30T13:29:43.985Z,37.80
2022-11-30T13:32:55.442Z,42.22
2022-11-30T13:35:30.838Z,41.63
2022-11-30T13:38:40.514Z,41.35
2022-11-30T13:41:09.210Z,45.70
2022-11-30T13:43:47.821Z,37.22
2022-11-30T13:46:23.629Z,39.13
2022-11-30T13:49:18.501Z,43.72
2022-11-30T13:51:45.278Z,40.42
2022-11-30T13:54:47.467Z,39.42
2022-11-30T13:57:43.206Z,39.47
2022-11-30T14:00:31.849Z,38.35
2022-11-30T14:03:20.809Z,44.67
2022-11-30T14:05:58.614Z,49.45
2022-11-30T14:08:26.055Z,44.08
2022-11-30T14:10:55.084Z,43.00
2022-11-30T14:13:29.036Z,47.70
2022-11-30T14:16:01.302Z,50.25
2022-11-30T14:18:31.722Z,44.17
2022-11-30T14:21:02.472Z,43.38
2022-11-30T14:23:46.897Z,53.85
2022-11-30T14:26:17.168Z,52.95
2022-11-30T14:29:07.953Z,42.40
2022-11-30T14:34:11.845Z,55.17
2022-11-30T14:36:44.724Z,41.58
2022-11-30T14:39:34.693Z,42.42
2022-11-30T14:42:02.331Z,47.88
2022-11-30T14:44:39.564Z,47.50
2022-11-30T14:47:20.425Z,40.05
2022-11-30T14:49:49.218Z,42.55
2022-11-30T14:52:38.701Z,43.92
2022-11-30T14:55:37.355Z,45.63
2022-11-30T14:58:23.521Z,45.72
2022-11-30T15:00:50.554Z,46.70
2022-11-30T15:03:24.910Z,41.00
2022-11-30T15:05:57.300Z,51.00
2022-11-30T15:08:25.820Z,48.97
2022-11-30T15:11:04.843Z,50.72
2022-11-30T15:13:31.530Z,45.10
2022-11-30T15:15:58.207Z,48.67
2022-11-30T15:18:25.791Z,43.53
2022-11-30T15:20:59.934Z,58.35
2022-11-30T15:23:26.820Z,43.80
2022-11-30T15:26:00.370Z,45.90
2022-11-30T15:28:53.960Z,42.83
2022-11-30T15:31:20.902Z,49.05
2022-11-30T15:33:49.646Z,34.13
2022-11-30T15:36:31.843Z,41.20
2022-11-30T15:39:03.300Z,35.58
2022-11-30T15:41:31.133Z,39.35
2022-11-30T15:43:58.018Z,37.33
2022-11-30T15:46:46.336Z,38.80
2022-11-30T15:49:22.923Z,35.53
2022-11-30T15:52:19.051Z,36.40
2022-11-30T15:54:55.840Z,40.67
2022-11-30T15:57:25.019Z,34.83
2022-11-30T16:00:20.366Z,37.63
2022-11-30T16:02:48.148Z,34.85
2022-11-30T16:05:19.599Z,34.28
2022-11-30T16:07:54.200Z,37.65
2022-11-30T16:10:40.052Z,37.15
2022-11-30T16:13:07.166Z,39.70
2022-11-30T16:15:36.288Z,36.40
2022-11-30T16:18:18.965Z,39.75
2022-11-30T16:20:51.631Z,31.20
2022-11-30T16:23:19.331Z,33.97
2022-11-30T16:25:47.786Z,35.92
2022-11-30T16:28:16.470Z,34.92
2022-11-30T16:30:44.683Z,34.83
2022-11-30T16:33:15.821Z,37.67
2022-11-30T16:36:01.500Z,34.90
2022-11-30T16:38:28.881Z,35.38
2022-11-30T16:41:18.245Z,31.63
2022-11-30T16:43:46.331Z,34.72
2022-11-30T16:46:15.654Z,31.88
2022-11-30T16:48:42.762Z,30.70
2022-11-30T16:51:18.375Z,58.28
2022-11-30T16:53:45.914Z,47.80
2022-11-30T16:56:14.665Z,46.08
2022-11-30T16:58:42.485Z,45.05
2022-11-30T17:01:22.463Z,49.47
2022-11-30T17:03:51.607Z,41.40
2022-11-30T17:06:20.882Z,32.20
2022-11-30T17:08:48.755Z,32.17
2022-11-30T17:11:19.971Z,37.10
2022-11-30T17:13:46.741Z,37.80
2022-11-30T17:16:14.822Z,28.65
2022-11-30T17:18:41.977Z,30.73
2022-11-30T17:21:14.152Z,29.42
2022-11-30T17:23:40.898Z,33.40
2022-11-30T17:26:07.631Z,39.05
2022-11-30T17:28:34.397Z,36.47
2022-11-30T17:31:01.132Z,30.92
2022-11-30T17:33:32.486Z,30.98
2022-11-30T17:35:59.301Z,28.60
2022-11-30T17:38:27.655Z,32.08
2022-11-30T17:40:54.860Z,32.95
2022-11-30T17:43:22.407Z,35.65
2022-11-30T17:45:49.557Z,58.42
2022-11-30T17:48:16.319Z,50.08
2022-11-30T17:50:43.480Z,39.75
2022-11-30T17:53:17.825Z,38.28
2022-11-30T17:55:45.514Z,40.05
2022-11-30T17:58:12.169Z,35.38
2022-11-30T18:00:38.892Z,37.05
2022-11-30T18:03:05.637Z,36.25
2022-11-30T18:05:33.310Z,39.17
2022-11-30T18:08:00.735Z,43.65
2022-11-30T18:10:27.449Z,38.20
2022-11-30T18:12:56.978Z,40.00
2022-11-30T18:18:42.855Z,38.88
2022-11-30T18:18:47.723Z,35.45
2022-11-30T18:25:59.414Z,40.83
2022-11-30T18:29:28.678Z,40.47
2022-11-30T18:42:14.608Z,34.78
2022-11-30T18:44:41.227Z,40.63
2022-11-30T18:47:12.137Z,40.15
2022-11-30T18:49:45.186Z,39.20
2022-11-30T18:56:21.613Z,50.50
2022-11-30T18:58:48.784Z,61.53
2022-11-30T19:01:34.690Z,46.35
2022-11-30T19:05:07.810Z,38.50
2022-11-30T19:08:26.932Z,36.58
2022-11-30T19:11:56.618Z,33.83
2022-11-30T19:18:23.641Z,43.08
2022-11-30T19:21:47.973Z,43.08
2022-11-30T19:24:24.428Z,40.55
2022-11-30T20:04:47.616Z,36.95
2022-11-30T20:07:14.868Z,34.83
2022-11-30T20:09:41.582Z,36.72
2022-11-30T20:12:08.231Z,35.22
2022-11-30T20:14:36.822Z,39.45
2022-11-30T20:17:03.547Z,35.33
2022-11-30T20:19:32.054Z,33.90
2022-11-30T20:21:59.348Z,32.80
2022-11-30T20:24:28.020Z,37.22
2022-11-30T20:26:54.906Z,35.58
2022-11-30T20:29:23.163Z,36.83
2022-11-30T20:31:50.295Z,39.33
2022-11-30T20:34:17.358Z,39.13
2022-11-30T20:36:45.209Z,38.53
2022-11-30T20:39:13.912Z,41.90
2022-11-30T20:41:42.396Z,46.38
2022-11-30T20:44:14.768Z,45.28
2022-11-30T20:46:50.965Z,44.83
2022-11-30T20:49:25.017Z,48.08
2022-11-30T20:52:12.751Z,41.65
2022-11-30T20:54:44.053Z,40.67
2022-11-30T20:57:13.192Z,43.65
2022-11-30T20:59:44.380Z,44.30
2022-11-30T21:02:17.400Z,40.10
2022-11-30T21:04:53.575Z,39.30
2022-11-30T21:07:20.376Z,43.60
2022-11-30T21:09:48.383Z,41.70
2022-11-30T21:12:15.402Z,43.90
2022-11-30T21:14:42.146Z,44.05
2022-11-30T21:17:09.329Z,41.67
2022-11-30T21:19:36.059Z,41.05
2022-11-30T21:22:05.224Z,42.92
2022-11-30T21:24:35.066Z,41.00
2022-11-30T21:27:01.966Z,38.67
2022-11-30T21:29:29.124Z,38.72
2022-11-30T21:31:55.845Z,39.45
2022-11-30T21:34:22.789Z,42.38
2022-11-30T21:36:52.631Z,40.47
2022-11-30T21:39:19.887Z,39.33
2022-11-30T21:41:46.674Z,38.50
2022-11-30T21:44:18.697Z,40.08
2022-11-30T21:46:51.793Z,46.55
2022-11-30T21:49:20.904Z,47.13
2022-11-30T21:51:47.623Z,41.80
2022-11-30T21:54:14.629Z,41.40
2022-11-30T21:56:44.015Z,39.05
2022-11-30T21:59:13.224Z,41.08
2022-11-30T22:01:42.950Z,39.53
2022-11-30T22:04:11.367Z,38.60
2022-11-30T22:06:39.784Z,42.00
2022-11-30T22:09:10.676Z,42.33
2022-11-30T22:11:40.099Z,44.28
2022-11-30T22:14:10.152Z,40.20
2022-11-30T22:16:36.994Z,42.05
2022-11-30T22:19:05.569Z,46.67
2022-11-30T22:21:32.743Z,50.65
2022-11-30T22:24:02.604Z,49.53
2022-11-30T22:26:31.790Z,52.65
2022-11-30T22:29:00.800Z,50.90
2022-11-30T22:31:30.289Z,47.67
2022-11-30T22:33:57.836Z,43.38
2022-11-30T22:36:27.459Z,50.50
2022-11-30T22:38:56.785Z,57.92
2022-11-30T22:41:24.221Z,54.15
2022-11-30T22:43:51.485Z,49.83
2022-11-30T22:46:26.835Z,43.92
2022-11-30T22:48:53.848Z,39.60
2022-11-30T22:51:26.636Z,42.67
2022-11-30T22:53:55.129Z,40.45
2022-11-30T22:56:26.932Z,39.13
2022-11-30T22:58:56.355Z,45.85
2022-11-30T23:01:25.120Z,39.58
2022-11-30T23:03:53.704Z,44.33
2022-11-30T23:06:21.961Z,43.58
2022-11-30T23:08:50.145Z,46.05
2022-11-30T23:11:19.709Z,42.17
2022-11-30T23:13:46.585Z,41.95
2022-11-30T23:16:15.929Z,44.20
2022-11-30T23:18:48.493Z,37.40
2022-11-30T23:21:18.399Z,41.47
2022-11-30T23:23:45.918Z,40.05
2022-11-30T23:26:20.881Z,40.92
2022-11-30T23:28:52.984Z,45.55
2022-11-30T23:31:34.037Z,43.30
2022-11-30T23:34:10.226Z,38.97
2022-11-30T23:36:37.360Z,37.72
2022-11-30T23:39:10.270Z,41.33
2022-11-30T23:41:37.159Z,43.97
2022-11-30T23:44:04.210Z,44.28
2022-11-30T23:46:31.048Z,43.22
2022-11-30T23:48:58.052Z,43.05
2022-11-30T23:51:26.720Z,44.10
2022-11-30T23:53:53.814Z,43.75
2022-11-30T23:56:22.552Z,46.92
2022-11-30T23:58:51.327Z,47.47
